Majestic — ZCPX7 — position and weather

sailwx.info

Track history (hours):
 
Tides and Currents Weather Stations Pressure Air Temp Water Temp Dewpoint Dewpoint Depression Visibility Wind Speed Wind Dir Waves Ship Positions

Majestic

Last reported at 2014-Aug-28 13:21 UTC. Time now 2014-Sep-01 23:41 UTC.
Position N 43°38' W 079°23'.

Length 61 m; draft 3.4 m.

Type: Pleasure craft. MMSI: 319654000.

Date/timePositionNaut miles runAvg speedWind from/ knotsBaromVisibWave heightAir tempDewpointWater temp
2014-Aug-28 13:21N 43°38' W 079°23'0 0.0
2014-Aug-28 12:31N 43°38' W 079°23'0 0.0
2014-Aug-28 11:31N 43°38' W 079°23'3 3.0
2014-Aug-28 10:30N 43°36' W 079°20'1111.1
2014-Aug-28 09:33N 43°37' W 079°06'1110.9
2014-Aug-28 08:33N 43°38' W 078°51'10111.2
2014-Aug-27 23:33N 44°08' W 076°37'8 7.9
2014-Aug-27 22:33N 44°13' W 076°29'0 0.2
2014-Aug-27 21:33N 44°13' W 076°29'0 0.0
2014-Aug-27 20:21N 44°13' W 076°29'0 0.0
2014-Aug-27 19:33N 44°13' W 076°29'6 5.5
2014-Aug-27 18:34N 44°14' W 076°22'9 9.1
2014-Aug-27 17:33N 44°14' W 076°09'3 3.0
2014-Aug-27 16:34N 44°15' W 076°05'0 0.0
2014-Aug-27 15:34N 44°15' W 076°05'0 0.0
2014-Aug-27 14:34N 44°15' W 076°05'0 0.0
2014-Aug-27 13:34N 44°15' W 076°05'7 7.1
2014-Aug-27 12:34N 44°19' W 075°57'2 2.3
2014-Aug-27 11:34N 44°21' W 075°55'0 0.0
2014-Aug-27 10:33N 44°21' W 075°55'0 0.0
2014-Aug-27 09:30N 44°21' W 075°55'0 0.0
2014-Aug-27 08:34N 44°21' W 075°55'0 0.0
2014-Aug-27 07:33N 44°21' W 075°55'0 0.0
2014-Aug-27 06:34N 44°21' W 075°55'0 0.0
2014-Aug-27 05:34N 44°21' W 075°55'0 0.0
2014-Aug-27 04:34N 44°21' W 075°55'0 0.0
2014-Aug-27 03:34N 44°21' W 075°55'0 0.0
2014-Aug-27 02:33N 44°21' W 075°55'0 0.0
2014-Aug-27 01:34N 44°21' W 075°55'0 0.0
2014-Aug-27 00:33N 44°21' W 075°55'0 0.0
2014-Aug-26 23:33N 44°21' W 075°55'0 0.0
2014-Aug-26 22:34N 44°21' W 075°55'0 0.0
2014-Aug-26 21:34N 44°21' W 075°55'0 0.0
2014-Aug-26 20:34N 44°21' W 075°55'0 0.0
2014-Aug-26 19:33N 44°21' W 075°55'0 0.0
2014-Aug-26 18:33N 44°21' W 075°55'0 0.0
2014-Aug-26 17:34N 44°21' W 075°55'0 0.0
2014-Aug-26 16:34N 44°21' W 075°55'0 0.0
2014-Aug-26 15:34N 44°21' W 075°55'0 0.0
2014-Aug-26 14:33N 44°21' W 075°55'6 6.0
2014-Aug-26 13:34N 44°25' W 075°50'1111.3
2014-Aug-26 12:33N 44°35' W 075°41'1312.7
2014-Aug-26 11:33N 44°44' W 075°28'9 9.3
2014-Aug-26 10:33N 44°50' W 075°19'9 8.7
2014-Aug-26 09:33N 44°55' W 075°08'1111.5
2014-Aug-26 08:34N 44°58' W 074°53'5 4.5
2014-Aug-26 07:33N 44°59' W 074°47'0 0.2
2014-Aug-26 06:34N 44°59' W 074°47'1 1.2
2014-Aug-26 05:33N 44°59' W 074°45'4 4.0
2014-Aug-26 04:34N 45°01' W 074°40'7 7.2
2014-Aug-26 03:34N 45°04' W 074°31'8 8.4
2014-Aug-26 02:34N 45°10' W 074°22'1010.1
2014-Aug-26 01:34N 45°14' W 074°09'9 8.5
2014-Aug-26 00:33N 45°16' W 073°57'3 3.0
2014-Aug-25 23:34N 45°19' W 073°55'2 2.4
2014-Aug-25 22:34N 45°21' W 073°53'1010.1
2014-Aug-25 21:33N 45°25' W 073°40'4 4.3
2014-Aug-25 20:33N 45°24' W 073°33'2 1.9
2014-Aug-25 19:34N 45°25' W 073°31'5 4.6
2014-Aug-25 18:33N 45°30' W 073°31'2 1.5
2014-Aug-25 17:27N 45°30' W 073°33'0 0.0
2014-Aug-25 16:33N 45°30' W 073°33'0 0.0
2014-Aug-25 15:27N 45°30' W 073°33'0 0.0
2014-Aug-25 14:33N 45°30' W 073°33'0 0.0
2014-Aug-25 13:30N 45°30' W 073°33'0 0.0
2014-Aug-25 12:33N 45°30' W 073°33'0 0.0
2014-Aug-25 11:33N 45°30' W 073°33'0 0.0
2014-Aug-25 10:27N 45°30' W 073°33'0 0.0
2014-Aug-25 08:30N 45°30' W 073°33'0 0.0
2014-Aug-25 07:18N 45°30' W 073°33'0 0.0
2014-Aug-25 06:12N 45°30' W 073°33'0 0.0
2014-Aug-25 01:06N 45°30' W 073°33'0 0.0
2014-Aug-24 06:33N 45°30' W 073°33'0 0.0
2014-Aug-24 05:33N 45°30' W 073°33'0 0.0
2014-Aug-22 16:30N 45°30' W 073°33'0 0.0
2014-Aug-22 15:18N 45°30' W 073°33'0 0.0
2014-Aug-22 12:12N 45°30' W 073°33'0 0.0
2014-Aug-22 11:24N 45°30' W 073°33'0 0.0
2014-Aug-22 10:21N 45°30' W 073°33'0 0.0
2014-Aug-22 09:33N 45°30' W 073°33'0 0.0
2014-Aug-22 08:30N 45°30' W 073°33'0 0.0
2014-Aug-22 07:30N 45°30' W 073°33'0 0.0
2014-Aug-22 06:30N 45°30' W 073°33'0 0.0
2014-Aug-22 05:33N 45°30' W 073°33'0 0.0
2014-Aug-22 04:30N 45°30' W 073°33'0 0.0
2014-Aug-22 03:24N 45°30' W 073°33'0 0.0
2014-Aug-22 01:18N 45°30' W 073°33'0 0.0
2014-Aug-22 00:30N 45°30' W 073°33'0 0.0
2014-Aug-21 23:30N 45°30' W 073°33'0 0.0
2014-Aug-21 22:21N 45°30' W 073°33'0 0.0
2014-Aug-21 21:24N 45°30' W 073°33'0 0.0
2014-Aug-21 16:33N 45°30' W 073°33'0 0.0
2014-Aug-21 13:18N 45°30' W 073°33'0 0.0
2014-Aug-21 12:18N 45°30' W 073°33'0 0.0
2014-Aug-21 11:30N 45°30' W 073°33'0 0.0
2014-Aug-21 10:33N 45°30' W 073°33'0 0.0
2014-Aug-21 06:30N 45°30' W 073°33'0 0.0
2014-Aug-21 05:30N 45°30' W 073°33'0 0.0
2014-Aug-21 04:27N 45°30' W 073°33'0 0.0
2014-Aug-21 02:06N 45°30' W 073°33'0 0.0
2014-Aug-20 23:30N 45°30' W 073°33'0 0.0
2014-Aug-20 13:33N 45°30' W 073°33'0 0.0
2014-Aug-20 12:33N 45°30' W 073°33'0 0.0
2014-Aug-20 11:33N 45°30' W 073°33'0 0.0
2014-Aug-20 10:33N 45°30' W 073°33'0 0.0
2014-Aug-20 09:33N 45°30' W 073°33'0 0.0
2014-Aug-20 08:30N 45°30' W 073°33'0 0.0
2014-Aug-20 07:33N 45°30' W 073°33'0 0.0
2014-Aug-20 06:33N 45°30' W 073°33'0 0.0
2014-Aug-20 05:30N 45°30' W 073°33'0 0.0
2014-Aug-20 04:33N 45°30' W 073°33'0 0.0
2014-Aug-20 03:33N 45°30' W 073°33'0 0.0
2014-Aug-20 02:33N 45°30' W 073°33'0 0.0
2014-Aug-20 01:30N 45°30' W 073°33'0 0.0
2014-Aug-20 00:27N 45°30' W 073°33'0 0.0
2014-Aug-19 23:18N 45°30' W 073°33'0 0.0
2014-Aug-19 22:33N 45°30' W 073°33'0 0.0
2014-Aug-19 21:30N 45°30' W 073°33'0 0.0
2014-Aug-19 20:06N 45°30' W 073°33'0 0.0
2014-Aug-19 19:03N 45°30' W 073°33'0 0.0
2014-Aug-19 18:09N 45°30' W 073°33'0 0.0
2014-Aug-19 16:33N 45°30' W 073°33'0 0.0
2014-Aug-19 14:24N 45°30' W 073°33'0 0.0
2014-Aug-19 13:33N 45°30' W 073°33'0 0.0
2014-Aug-19 09:33N 45°30' W 073°33'0 0.0
2014-Aug-19 08:24N 45°30' W 073°33'0 0.0
2014-Aug-19 07:30N 45°30' W 073°33'0 0.0
2014-Aug-19 06:33N 45°30' W 073°33'0 0.0
2014-Aug-19 05:24N 45°30' W 073°33'0 0.0
2014-Aug-19 04:33N 45°30' W 073°33'0 0.0
2014-Aug-19 03:24N 45°30' W 073°33'0 0.0
2014-Aug-19 02:18N 45°30' W 073°33'0 0.0
2014-Aug-19 01:30N 45°30' W 073°33'0 0.0
2014-Aug-19 00:06N 45°30' W 073°33'0 0.0
2014-Aug-18 23:12N 45°30' W 073°33'0 0.0
2014-Aug-18 21:06N 45°30' W 073°33'0 0.0
2014-Aug-18 20:24N 45°30' W 073°33'0 0.0
2014-Aug-18 19:33N 45°30' W 073°33'0 0.0
2014-Aug-18 17:09N 45°30' W 073°33'0 0.0
2014-Aug-18 15:30N 45°30' W 073°33'0 0.0
2014-Aug-18 14:33N 45°30' W 073°33'  
Track history (hours):
 
Tides and Currents Weather Stations Pressure Air Temp Water Temp Dewpoint Dewpoint Depression Visibility Wind Speed Wind Dir Waves Ship Positions

Majestic

Last reported at 2014-Aug-28 13:21 UTC. Time now 2014-Sep-01 23:41 UTC.
Position N 43°38' W 079°23'.

Length 61 m; draft 3.4 m.

Type: Pleasure craft. MMSI: 319654000.

Date/timePositionNaut miles runAvg speedWind from/ knotsBaromVisibWave heightAir tempDewpointWater temp
2014-Aug-28 13:21N 43°38' W 079°23'0 0.0
2014-Aug-28 12:31N 43°38' W 079°23'0 0.0
2014-Aug-28 11:31N 43°38' W 079°23'3 3.0
2014-Aug-28 10:30N 43°36' W 079°20'1111.1
2014-Aug-28 09:33N 43°37' W 079°06'1110.9
2014-Aug-28 08:33N 43°38' W 078°51'10111.2
2014-Aug-27 23:33N 44°08' W 076°37'8 7.9
2014-Aug-27 22:33N 44°13' W 076°29'0 0.2
2014-Aug-27 21:33N 44°13' W 076°29'0 0.0
2014-Aug-27 20:21N 44°13' W 076°29'0 0.0
2014-Aug-27 19:33N 44°13' W 076°29'6 5.5
2014-Aug-27 18:34N 44°14' W 076°22'9 9.1
2014-Aug-27 17:33N 44°14' W 076°09'3 3.0
2014-Aug-27 16:34N 44°15' W 076°05'0 0.0
2014-Aug-27 15:34N 44°15' W 076°05'0 0.0
2014-Aug-27 14:34N 44°15' W 076°05'0 0.0
2014-Aug-27 13:34N 44°15' W 076°05'7 7.1
2014-Aug-27 12:34N 44°19' W 075°57'2 2.3
2014-Aug-27 11:34N 44°21' W 075°55'0 0.0
2014-Aug-27 10:33N 44°21' W 075°55'0 0.0
2014-Aug-27 09:30N 44°21' W 075°55'0 0.0
2014-Aug-27 08:34N 44°21' W 075°55'0 0.0
2014-Aug-27 07:33N 44°21' W 075°55'0 0.0
2014-Aug-27 06:34N 44°21' W 075°55'0 0.0
2014-Aug-27 05:34N 44°21' W 075°55'0 0.0
2014-Aug-27 04:34N 44°21' W 075°55'0 0.0
2014-Aug-27 03:34N 44°21' W 075°55'0 0.0
2014-Aug-27 02:33N 44°21' W 075°55'0 0.0
2014-Aug-27 01:34N 44°21' W 075°55'0 0.0
2014-Aug-27 00:33N 44°21' W 075°55'0 0.0
2014-Aug-26 23:33N 44°21' W 075°55'0 0.0
2014-Aug-26 22:34N 44°21' W 075°55'0 0.0
2014-Aug-26 21:34N 44°21' W 075°55'0 0.0
2014-Aug-26 20:34N 44°21' W 075°55'0 0.0
2014-Aug-26 19:33N 44°21' W 075°55'0 0.0
2014-Aug-26 18:33N 44°21' W 075°55'0 0.0
2014-Aug-26 17:34N 44°21' W 075°55'0 0.0
2014-Aug-26 16:34N 44°21' W 075°55'0 0.0
2014-Aug-26 15:34N 44°21' W 075°55'0 0.0
2014-Aug-26 14:33N 44°21' W 075°55'6 6.0
2014-Aug-26 13:34N 44°25' W 075°50'1111.3
2014-Aug-26 12:33N 44°35' W 075°41'1312.7
2014-Aug-26 11:33N 44°44' W 075°28'9 9.3
2014-Aug-26 10:33N 44°50' W 075°19'9 8.7
2014-Aug-26 09:33N 44°55' W 075°08'1111.5
2014-Aug-26 08:34N 44°58' W 074°53'5 4.5
2014-Aug-26 07:33N 44°59' W 074°47'0 0.2
2014-Aug-26 06:34N 44°59' W 074°47'1 1.2
2014-Aug-26 05:33N 44°59' W 074°45'4 4.0
2014-Aug-26 04:34N 45°01' W 074°40'7 7.2
2014-Aug-26 03:34N 45°04' W 074°31'8 8.4
2014-Aug-26 02:34N 45°10' W 074°22'1010.1
2014-Aug-26 01:34N 45°14' W 074°09'9 8.5
2014-Aug-26 00:33N 45°16' W 073°57'3 3.0
2014-Aug-25 23:34N 45°19' W 073°55'2 2.4
2014-Aug-25 22:34N 45°21' W 073°53'1010.1
2014-Aug-25 21:33N 45°25' W 073°40'4 4.3
2014-Aug-25 20:33N 45°24' W 073°33'2 1.9
2014-Aug-25 19:34N 45°25' W 073°31'5 4.6
2014-Aug-25 18:33N 45°30' W 073°31'2 1.5
2014-Aug-25 17:27N 45°30' W 073°33'0 0.0
2014-Aug-25 16:33N 45°30' W 073°33'0 0.0
2014-Aug-25 15:27N 45°30' W 073°33'0 0.0
2014-Aug-25 14:33N 45°30' W 073°33'0 0.0
2014-Aug-25 13:30N 45°30' W 073°33'0 0.0
2014-Aug-25 12:33N 45°30' W 073°33'0 0.0
2014-Aug-25 11:33N 45°30' W 073°33'0 0.0
2014-Aug-25 10:27N 45°30' W 073°33'0 0.0
2014-Aug-25 08:30N 45°30' W 073°33'0 0.0
2014-Aug-25 07:18N 45°30' W 073°33'0 0.0
2014-Aug-25 06:12N 45°30' W 073°33'0 0.0
2014-Aug-25 01:06N 45°30' W 073°33'0 0.0
2014-Aug-24 06:33N 45°30' W 073°33'0 0.0
2014-Aug-24 05:33N 45°30' W 073°33'0 0.0
2014-Aug-22 16:30N 45°30' W 073°33'0 0.0
2014-Aug-22 15:18N 45°30' W 073°33'0 0.0
2014-Aug-22 12:12N 45°30' W 073°33'0 0.0
2014-Aug-22 11:24N 45°30' W 073°33'0 0.0
2014-Aug-22 10:21N 45°30' W 073°33'0 0.0
2014-Aug-22 09:33N 45°30' W 073°33'0 0.0
2014-Aug-22 08:30N 45°30' W 073°33'0 0.0
2014-Aug-22 07:30N 45°30' W 073°33'0 0.0
2014-Aug-22 06:30N 45°30' W 073°33'0 0.0
2014-Aug-22 05:33N 45°30' W 073°33'0 0.0
2014-Aug-22 04:30N 45°30' W 073°33'0 0.0
2014-Aug-22 03:24N 45°30' W 073°33'0 0.0
2014-Aug-22 01:18N 45°30' W 073°33'0 0.0
2014-Aug-22 00:30N 45°30' W 073°33'0 0.0
2014-Aug-21 23:30N 45°30' W 073°33'0 0.0
2014-Aug-21 22:21N 45°30' W 073°33'0 0.0
2014-Aug-21 21:24N 45°30' W 073°33'0 0.0
2014-Aug-21 16:33N 45°30' W 073°33'0 0.0
2014-Aug-21 13:18N 45°30' W 073°33'0 0.0
2014-Aug-21 12:18N 45°30' W 073°33'0 0.0
2014-Aug-21 11:30N 45°30' W 073°33'0 0.0
2014-Aug-21 10:33N 45°30' W 073°33'0 0.0
2014-Aug-21 06:30N 45°30' W 073°33'0 0.0
2014-Aug-21 05:30N 45°30' W 073°33'0 0.0
2014-Aug-21 04:27N 45°30' W 073°33'0 0.0
2014-Aug-21 02:06N 45°30' W 073°33'0 0.0
2014-Aug-20 23:30N 45°30' W 073°33'0 0.0
2014-Aug-20 13:33N 45°30' W 073°33'0 0.0
2014-Aug-20 12:33N 45°30' W 073°33'0 0.0
2014-Aug-20 11:33N 45°30' W 073°33'0 0.0
2014-Aug-20 10:33N 45°30' W 073°33'0 0.0
2014-Aug-20 09:33N 45°30' W 073°33'0 0.0
2014-Aug-20 08:30N 45°30' W 073°33'0 0.0
2014-Aug-20 07:33N 45°30' W 073°33'0 0.0
2014-Aug-20 06:33N 45°30' W 073°33'0 0.0
2014-Aug-20 05:30N 45°30' W 073°33'0 0.0
2014-Aug-20 04:33N 45°30' W 073°33'0 0.0
2014-Aug-20 03:33N 45°30' W 073°33'0 0.0
2014-Aug-20 02:33N 45°30' W 073°33'0 0.0
2014-Aug-20 01:30N 45°30' W 073°33'0 0.0
2014-Aug-20 00:27N 45°30' W 073°33'0 0.0
2014-Aug-19 23:18N 45°30' W 073°33'0 0.0
2014-Aug-19 22:33N 45°30' W 073°33'0 0.0
2014-Aug-19 21:30N 45°30' W 073°33'0 0.0
2014-Aug-19 20:06N 45°30' W 073°33'0 0.0
2014-Aug-19 19:03N 45°30' W 073°33'0 0.0
2014-Aug-19 18:09N 45°30' W 073°33'0 0.0
2014-Aug-19 16:33N 45°30' W 073°33'0 0.0
2014-Aug-19 14:24N 45°30' W 073°33'0 0.0
2014-Aug-19 13:33N 45°30' W 073°33'0 0.0
2014-Aug-19 09:33N 45°30' W 073°33'0 0.0
2014-Aug-19 08:24N 45°30' W 073°33'0 0.0
2014-Aug-19 07:30N 45°30' W 073°33'0 0.0
2014-Aug-19 06:33N 45°30' W 073°33'0 0.0
2014-Aug-19 05:24N 45°30' W 073°33'0 0.0
2014-Aug-19 04:33N 45°30' W 073°33'0 0.0
2014-Aug-19 03:24N 45°30' W 073°33'0 0.0
2014-Aug-19 02:18N 45°30' W 073°33'0 0.0
2014-Aug-19 01:30N 45°30' W 073°33'0 0.0
2014-Aug-19 00:06N 45°30' W 073°33'0 0.0
2014-Aug-18 23:12N 45°30' W 073°33'0 0.0
2014-Aug-18 21:06N 45°30' W 073°33'0 0.0
2014-Aug-18 20:24N 45°30' W 073°33'0 0.0
2014-Aug-18 19:33N 45°30' W 073°33'0 0.0
2014-Aug-18 17:09N 45°30' W 073°33'0 0.0
2014-Aug-18 15:30N 45°30' W 073°33'0 0.0
2014-Aug-18 14:33N 45°30' W 073°33'  

Dump ship's entire track history